createdAt,value
2022-12-23T00:01:57.964Z,67.40
2022-12-23T00:05:04.958Z,68.93
2022-12-23T00:08:08.168Z,64.93
2022-12-23T00:11:17.601Z,69.60
2022-12-23T00:14:39.046Z,72.37
2022-12-23T00:17:44.247Z,68.37
2022-12-23T00:20:48.808Z,78.27
2022-12-23T00:23:52.428Z,70.65
2022-12-23T00:26:55.330Z,78.20
2022-12-23T00:29:58.138Z,80.07
2022-12-23T00:33:02.351Z,76.90
2022-12-23T00:36:19.494Z,78.83
2022-12-23T00:39:41.208Z,77.93
2022-12-23T00:42:56.072Z,76.30
2022-12-23T00:45:58.918Z,78.93
2022-12-23T00:49:20.398Z,80.25
2022-12-23T00:52:24.340Z,73.47
2022-12-23T00:55:27.276Z,77.68
2022-12-23T00:58:32.179Z,67.95
2022-12-23T01:01:54.210Z,71.87
2022-12-23T01:05:15.691Z,74.25
2022-12-23T01:08:18.637Z,77.30
2022-12-23T01:11:22.477Z,78.45
2022-12-23T01:14:26.035Z,69.70
2022-12-23T01:17:28.880Z,69.78
2022-12-23T01:20:41.315Z,71.85
2022-12-23T01:23:44.306Z,64.43
2022-12-23T01:26:47.231Z,74.90
2022-12-23T01:29:50.164Z,68.18
2022-12-23T01:32:55.852Z,69.93
2022-12-23T01:36:08.244Z,67.95
2022-12-23T01:39:11.391Z,64.83
2022-12-23T01:42:34.690Z,69.12
2022-12-23T01:45:37.721Z,64.03
2022-12-23T01:48:42.759Z,59.92
2022-12-23T01:51:45.556Z,65.37
2022-12-23T01:54:51.618Z,55.97
2022-12-23T01:57:56.204Z,55.55
2022-12-23T02:01:18.566Z,58.42
2022-12-23T02:04:26.080Z,57.60
2022-12-23T02:07:47.252Z,57.08
2022-12-23T02:10:53.102Z,52.90
2022-12-23T02:14:42.789Z,49.13
2022-12-23T02:18:04.209Z,52.67
2022-12-23T02:21:19.376Z,52.28
2022-12-23T02:24:25.029Z,46.13
2022-12-23T02:27:31.952Z,42.10
2022-12-23T02:30:41.311Z,44.63
2022-12-23T02:34:10.176Z,62.80
2022-12-23T02:37:36.871Z,45.83
2022-12-23T02:41:01.889Z,50.83
2022-12-23T02:44:16.119Z,49.57
2022-12-23T02:47:26.000Z,56.22
2022-12-23T02:50:32.015Z,51.53
2022-12-23T02:53:41.956Z,53.13
2022-12-23T02:56:47.350Z,54.00
2022-12-23T02:59:51.961Z,54.00
2022-12-23T03:02:54.895Z,50.22
2022-12-23T03:05:58.245Z,57.13
2022-12-23T03:09:08.443Z,53.97
2022-12-23T03:12:28.347Z,58.40
2022-12-23T03:16:01.428Z,54.57
2022-12-23T03:19:35.301Z,51.72
2022-12-23T03:22:53.269Z,63.40
2022-12-23T03:26:02.811Z,66.03
2022-12-23T03:29:15.723Z,68.75
2022-12-23T03:32:19.947Z,63.23
2022-12-23T03:35:37.366Z,70.60
2022-12-23T03:38:42.187Z,88.03
2022-12-23T03:41:51.745Z,73.35
2022-12-23T03:45:36.495Z,73.03
2022-12-23T03:48:25.073Z,88.93
2022-12-23T03:51:32.913Z,75.70
2022-12-23T03:54:48.692Z,72.03
2022-12-23T03:57:58.428Z,78.62
2022-12-23T04:01:20.323Z,74.53
2022-12-23T04:04:29.952Z,65.87
2022-12-23T04:07:40.769Z,64.18
2022-12-23T04:10:44.098Z,71.68
2022-12-23T04:13:48.459Z,69.30
2022-12-23T04:16:55.947Z,74.57
2022-12-23T04:20:02.032Z,77.80
2022-12-23T04:23:08.285Z,75.97
2022-12-23T04:26:14.372Z,97.05
2022-12-23T04:29:17.524Z,105.35
2022-12-23T04:32:20.515Z,68.40
2022-12-23T04:35:26.015Z,83.53
2022-12-23T04:38:29.034Z,79.40
2022-12-23T04:41:32.120Z,96.05
2022-12-23T04:44:38.184Z,101.65
2022-12-23T04:47:44.119Z,94.30
2022-12-23T04:50:50.528Z,79.97
2022-12-23T04:53:53.458Z,88.35
2022-12-23T04:56:56.456Z,90.12
2022-12-23T05:00:02.495Z,83.00
2022-12-23T05:03:06.508Z,80.87
2022-12-23T05:06:09.564Z,101.90
2022-12-23T05:09:12.454Z,93.55
2022-12-23T05:12:20.217Z,92.50
2022-12-23T05:15:26.159Z,70.60
2022-12-23T05:18:29.038Z,66.05
2022-12-23T05:21:32.056Z,89.80
2022-12-23T05:49:48.848Z,60.08
2022-12-23T05:52:52.039Z,57.55
2022-12-23T05:55:54.966Z,60.87
2022-12-23T05:58:58.291Z,75.65
2022-12-23T06:02:01.426Z,77.07
2022-12-23T06:05:04.738Z,57.75
